sensor_id;sensor_type;location;lat;lon;timestamp;P1;durP1;ratioP1;P2;durP2;ratioP2
70406;SDS011;57821;52.202;0.154;2022-12-07T00:03:46;24.35;;;10.02;;
70406;SDS011;57821;52.202;0.154;2022-12-07T00:06:15;22.92;;;9.02;;
70406;SDS011;57821;52.202;0.154;2022-12-07T00:08:43;26.55;;;8.68;;
70406;SDS011;57821;52.202;0.154;2022-12-07T00:11:11;20.50;;;8.82;;
70406;SDS011;57821;52.202;0.154;2022-12-07T00:13:43;23.20;;;9.15;;
70406;SDS011;57821;52.202;0.154;2022-12-07T00:16:15;24.02;;;9.05;;
70406;SDS011;57821;52.202;0.154;2022-12-07T00:18:43;21.92;;;9.05;;
70406;SDS011;57821;52.202;0.154;2022-12-07T00:21:15;22.95;;;9.63;;
70406;SDS011;57821;52.202;0.154;2022-12-07T00:23:44;31.38;;;9.50;;
70406;SDS011;57821;52.202;0.154;2022-12-07T00:26:15;25.65;;;9.27;;
70406;SDS011;57821;52.202;0.154;2022-12-07T00:28:47;21.65;;;8.63;;
70406;SDS011;57821;52.202;0.154;2022-12-07T00:31:15;27.48;;;10.25;;
70406;SDS011;57821;52.202;0.154;2022-12-07T00:33:43;24.70;;;9.00;;
70406;SDS011;57821;52.202;0.154;2022-12-07T00:36:11;28.20;;;11.35;;
70406;SDS011;57821;52.202;0.154;2022-12-07T00:38:39;29.75;;;9.98;;
70406;SDS011;57821;52.202;0.154;2022-12-07T00:41:08;25.92;;;9.32;;
70406;SDS011;57821;52.202;0.154;2022-12-07T00:43:39;26.95;;;8.73;;
70406;SDS011;57821;52.202;0.154;2022-12-07T00:46:06;23.35;;;9.55;;
70406;SDS011;57821;52.202;0.154;2022-12-07T00:48:33;26.13;;;9.55;;
70406;SDS011;57821;52.202;0.154;2022-12-07T00:51:00;24.95;;;9.98;;
70406;SDS011;57821;52.202;0.154;2022-12-07T00:53:27;24.35;;;10.13;;
70406;SDS011;57821;52.202;0.154;2022-12-07T00:55:54;24.25;;;9.07;;
70406;SDS011;57821;52.202;0.154;2022-12-07T00:58:21;28.27;;;10.10;;
70406;SDS011;57821;52.202;0.154;2022-12-07T01:00:48;22.67;;;9.02;;
70406;SDS011;57821;52.202;0.154;2022-12-07T01:03:15;26.35;;;10.10;;
70406;SDS011;57821;52.202;0.154;2022-12-07T01:05:52;26.42;;;10.23;;
70406;SDS011;57821;52.202;0.154;2022-12-07T01:08:20;25.60;;;9.73;;
70406;SDS011;57821;52.202;0.154;2022-12-07T01:10:48;30.77;;;10.65;;
70406;SDS011;57821;52.202;0.154;2022-12-07T01:13:15;29.58;;;9.73;;
70406;SDS011;57821;52.202;0.154;2022-12-07T01:15:42;23.63;;;9.88;;
70406;SDS011;57821;52.202;0.154;2022-12-07T01:18:10;32.45;;;10.90;;
70406;SDS011;57821;52.202;0.154;2022-12-07T01:20:36;27.77;;;10.45;;
70406;SDS011;57821;52.202;0.154;2022-12-07T01:23:03;24.13;;;8.93;;
70406;SDS011;57821;52.202;0.154;2022-12-07T01:25:30;26.63;;;8.95;;
70406;SDS011;57821;52.202;0.154;2022-12-07T01:27:56;24.20;;;9.32;;
70406;SDS011;57821;52.202;0.154;2022-12-07T01:30:23;23.33;;;9.25;;
70406;SDS011;57821;52.202;0.154;2022-12-07T01:32:49;24.58;;;9.05;;
70406;SDS011;57821;52.202;0.154;2022-12-07T01:35:16;25.30;;;9.98;;
70406;SDS011;57821;52.202;0.154;2022-12-07T01:37:42;30.75;;;10.50;;
70406;SDS011;57821;52.202;0.154;2022-12-07T01:40:09;27.25;;;9.15;;
70406;SDS011;57821;52.202;0.154;2022-12-07T01:42:36;28.35;;;9.15;;
70406;SDS011;57821;52.202;0.154;2022-12-07T01:47:46;30.90;;;10.55;;
70406;SDS011;57821;52.202;0.154;2022-12-07T01:50:16;29.67;;;9.25;;
70406;SDS011;57821;52.202;0.154;2022-12-07T01:52:43;35.08;;;11.60;;
70406;SDS011;57821;52.202;0.154;2022-12-07T01:55:15;27.38;;;8.73;;
70406;SDS011;57821;52.202;0.154;2022-12-07T01:57:47;22.92;;;7.93;;
70406;SDS011;57821;52.202;0.154;2022-12-07T02:00:15;25.55;;;8.02;;
70406;SDS011;57821;52.202;0.154;2022-12-07T02:02:46;24.27;;;9.90;;
70406;SDS011;57821;52.202;0.154;2022-12-07T02:05:17;24.02;;;7.35;;
70406;SDS011;57821;52.202;0.154;2022-12-07T02:07:45;22.52;;;8.18;;
70406;SDS011;57821;52.202;0.154;2022-12-07T02:10:18;25.30;;;8.70;;
70406;SDS011;57821;52.202;0.154;2022-12-07T02:12:48;20.05;;;8.13;;
70406;SDS011;57821;52.202;0.154;2022-12-07T02:15:19;22.75;;;7.70;;
70406;SDS011;57821;52.202;0.154;2022-12-07T02:17:57;25.52;;;7.57;;
70406;SDS011;57821;52.202;0.154;2022-12-07T02:20:33;23.13;;;7.55;;
70406;SDS011;57821;52.202;0.154;2022-12-07T02:29:14;21.05;;;7.93;;
70406;SDS011;57821;52.202;0.154;2022-12-07T02:31:27;27.15;;;7.97;;
70406;SDS011;57821;52.202;0.154;2022-12-07T02:34:43;29.05;;;8.45;;
70406;SDS011;57821;52.202;0.154;2022-12-07T02:37:00;25.80;;;7.97;;
70406;SDS011;57821;52.202;0.154;2022-12-07T02:42:12;25.33;;;7.97;;
70406;SDS011;57821;52.202;0.154;2022-12-07T02:44:43;22.55;;;7.95;;
70406;SDS011;57821;52.202;0.154;2022-12-07T02:47:12;28.00;;;8.68;;
70406;SDS011;57821;52.202;0.154;2022-12-07T02:49:42;25.45;;;8.82;;
70406;SDS011;57821;52.202;0.154;2022-12-07T02:52:09;28.00;;;9.27;;
70406;SDS011;57821;52.202;0.154;2022-12-07T02:54:35;22.17;;;9.13;;
70406;SDS011;57821;52.202;0.154;2022-12-07T02:59:59;30.27;;;9.77;;
70406;SDS011;57821;52.202;0.154;2022-12-07T03:13:19;36.67;;;13.50;;
70406;SDS011;57821;52.202;0.154;2022-12-07T03:19:05;38.67;;;13.68;;
70406;SDS011;57821;52.202;0.154;2022-12-07T03:21:36;41.55;;;13.50;;
70406;SDS011;57821;52.202;0.154;2022-12-07T03:24:08;35.80;;;13.65;;
70406;SDS011;57821;52.202;0.154;2022-12-07T03:26:38;36.05;;;15.07;;
70406;SDS011;57821;52.202;0.154;2022-12-07T03:29:24;31.83;;;12.38;;
70406;SDS011;57821;52.202;0.154;2022-12-07T03:31:55;34.00;;;11.07;;
70406;SDS011;57821;52.202;0.154;2022-12-07T03:34:34;26.58;;;10.70;;
70406;SDS011;57821;52.202;0.154;2022-12-07T03:37:08;33.65;;;11.05;;
70406;SDS011;57821;52.202;0.154;2022-12-07T03:39:49;34.90;;;10.65;;
70406;SDS011;57821;52.202;0.154;2022-12-07T03:42:30;26.38;;;10.00;;
70406;SDS011;57821;52.202;0.154;2022-12-07T03:44:59;29.77;;;10.63;;
70406;SDS011;57821;52.202;0.154;2022-12-07T03:52:48;34.00;;;10.45;;
70406;SDS011;57821;52.202;0.154;2022-12-07T03:55:26;28.70;;;9.73;;
70406;SDS011;57821;52.202;0.154;2022-12-07T03:57:56;26.35;;;9.18;;
70406;SDS011;57821;52.202;0.154;2022-12-07T04:02:54;23.05;;;8.25;;
70406;SDS011;57821;52.202;0.154;2022-12-07T04:05:21;20.08;;;7.78;;
70406;SDS011;57821;52.202;0.154;2022-12-07T04:07:48;19.98;;;8.02;;
70406;SDS011;57821;52.202;0.154;2022-12-07T04:10:15;23.10;;;7.60;;
70406;SDS011;57821;52.202;0.154;2022-12-07T04:12:41;21.17;;;7.75;;
70406;SDS011;57821;52.202;0.154;2022-12-07T04:15:08;23.02;;;7.93;;
70406;SDS011;57821;52.202;0.154;2022-12-07T04:17:35;27.05;;;7.82;;
70406;SDS011;57821;52.202;0.154;2022-12-07T04:20:02;15.23;;;6.90;;
70406;SDS011;57821;52.202;0.154;2022-12-07T04:22:30;17.55;;;6.38;;
70406;SDS011;57821;52.202;0.154;2022-12-07T04:24:56;21.90;;;6.70;;
70406;SDS011;57821;52.202;0.154;2022-12-07T04:27:23;23.48;;;6.95;;
70406;SDS011;57821;52.202;0.154;2022-12-07T04:29:49;20.10;;;6.32;;
70406;SDS011;57821;52.202;0.154;2022-12-07T04:32:16;21.48;;;6.55;;
70406;SDS011;57821;52.202;0.154;2022-12-07T04:34:42;20.95;;;6.65;;
70406;SDS011;57821;52.202;0.154;2022-12-07T04:37:09;16.67;;;6.15;;
70406;SDS011;57821;52.202;0.154;2022-12-07T04:39:36;20.70;;;6.43;;
70406;SDS011;57821;52.202;0.154;2022-12-07T04:42:02;17.88;;;5.95;;
70406;SDS011;57821;52.202;0.154;2022-12-07T04:44:29;21.27;;;6.07;;
70406;SDS011;57821;52.202;0.154;2022-12-07T04:46:56;18.63;;;5.65;;
70406;SDS011;57821;52.202;0.154;2022-12-07T04:49:24;23.35;;;5.63;;
70406;SDS011;57821;52.202;0.154;2022-12-07T04:51:51;16.42;;;5.70;;
70406;SDS011;57821;52.202;0.154;2022-12-07T04:54:17;22.08;;;5.57;;
70406;SDS011;57821;52.202;0.154;2022-12-07T04:56:44;22.60;;;5.80;;
70406;SDS011;57821;52.202;0.154;2022-12-07T04:59:11;22.65;;;5.95;;
70406;SDS011;57821;52.202;0.154;2022-12-07T05:01:39;16.00;;;5.43;;
70406;SDS011;57821;52.202;0.154;2022-12-07T05:04:06;17.15;;;5.65;;
70406;SDS011;57821;52.202;0.154;2022-12-07T05:06:33;17.20;;;6.00;;
70406;SDS011;57821;52.202;0.154;2022-12-07T05:08:59;19.50;;;5.82;;
70406;SDS011;57821;52.202;0.154;2022-12-07T05:11:27;20.23;;;5.03;;
70406;SDS011;57821;52.202;0.154;2022-12-07T05:13:54;15.52;;;5.35;;
70406;SDS011;57821;52.202;0.154;2022-12-07T05:16:20;22.38;;;5.30;;
70406;SDS011;57821;52.202;0.154;2022-12-07T05:18:47;21.70;;;5.30;;
70406;SDS011;57821;52.202;0.154;2022-12-07T05:21:13;15.50;;;4.68;;
70406;SDS011;57821;52.202;0.154;2022-12-07T05:23:40;16.98;;;4.43;;
70406;SDS011;57821;52.202;0.154;2022-12-07T05:26:06;17.73;;;4.57;;
70406;SDS011;57821;52.202;0.154;2022-12-07T05:28:33;17.77;;;4.38;;
70406;SDS011;57821;52.202;0.154;2022-12-07T05:30:59;15.52;;;4.30;;
70406;SDS011;57821;52.202;0.154;2022-12-07T05:33:26;17.95;;;3.90;;
70406;SDS011;57821;52.202;0.154;2022-12-07T05:35:52;14.50;;;3.63;;
70406;SDS011;57821;52.202;0.154;2022-12-07T05:38:19;15.73;;;3.67;;
70406;SDS011;57821;52.202;0.154;2022-12-07T05:40:45;17.17;;;3.88;;
70406;SDS011;57821;52.202;0.154;2022-12-07T05:43:12;14.50;;;3.47;;
70406;SDS011;57821;52.202;0.154;2022-12-07T05:45:38;22.40;;;4.28;;
70406;SDS011;57821;52.202;0.154;2022-12-07T05:48:05;13.98;;;3.72;;
70406;SDS011;57821;52.202;0.154;2022-12-07T05:50:32;13.55;;;3.35;;
70406;SDS011;57821;52.202;0.154;2022-12-07T05:53:01;23.75;;;4.28;;
70406;SDS011;57821;52.202;0.154;2022-12-07T05:55:27;12.73;;;3.35;;
70406;SDS011;57821;52.202;0.154;2022-12-07T05:57:54;16.98;;;3.67;;
70406;SDS011;57821;52.202;0.154;2022-12-07T06:00:20;12.80;;;3.40;;
70406;SDS011;57821;52.202;0.154;2022-12-07T06:02:47;13.82;;;3.40;;
70406;SDS011;57821;52.202;0.154;2022-12-07T06:05:14;22.00;;;3.92;;
70406;SDS011;57821;52.202;0.154;2022-12-07T06:07:40;11.68;;;3.10;;
70406;SDS011;57821;52.202;0.154;2022-12-07T06:10:07;11.45;;;3.72;;
70406;SDS011;57821;52.202;0.154;2022-12-07T06:12:34;24.70;;;4.22;;
70406;SDS011;57821;52.202;0.154;2022-12-07T06:15:00;18.35;;;4.75;;
70406;SDS011;57821;52.202;0.154;2022-12-07T06:17:27;13.77;;;3.83;;
70406;SDS011;57821;52.202;0.154;2022-12-07T06:19:53;12.88;;;3.95;;
70406;SDS011;57821;52.202;0.154;2022-12-07T06:22:20;18.50;;;4.28;;
70406;SDS011;57821;52.202;0.154;2022-12-07T06:24:46;14.07;;;4.05;;
70406;SDS011;57821;52.202;0.154;2022-12-07T06:27:13;16.38;;;3.83;;
70406;SDS011;57821;52.202;0.154;2022-12-07T06:29:39;21.27;;;4.47;;
70406;SDS011;57821;52.202;0.154;2022-12-07T06:32:06;20.52;;;4.28;;
70406;SDS011;57821;52.202;0.154;2022-12-07T06:34:33;19.90;;;3.70;;
70406;SDS011;57821;52.202;0.154;2022-12-07T06:36:59;13.70;;;3.60;;
70406;SDS011;57821;52.202;0.154;2022-12-07T06:39:26;14.77;;;3.97;;
70406;SDS011;57821;52.202;0.154;2022-12-07T06:41:54;16.65;;;4.20;;
70406;SDS011;57821;52.202;0.154;2022-12-07T06:44:21;19.02;;;4.00;;
70406;SDS011;57821;52.202;0.154;2022-12-07T06:46:48;14.55;;;4.55;;
70406;SDS011;57821;52.202;0.154;2022-12-07T06:49:16;15.75;;;4.95;;
70406;SDS011;57821;52.202;0.154;2022-12-07T06:51:43;21.25;;;5.22;;
70406;SDS011;57821;52.202;0.154;2022-12-07T06:54:13;19.58;;;5.35;;
70406;SDS011;57821;52.202;0.154;2022-12-07T06:56:40;18.60;;;4.83;;
70406;SDS011;57821;52.202;0.154;2022-12-07T06:59:07;16.83;;;4.60;;
70406;SDS011;57821;52.202;0.154;2022-12-07T07:01:34;18.90;;;4.50;;
70406;SDS011;57821;52.202;0.154;2022-12-07T07:04:01;14.35;;;4.70;;
70406;SDS011;57821;52.202;0.154;2022-12-07T07:06:28;21.67;;;4.28;;
70406;SDS011;57821;52.202;0.154;2022-12-07T07:08:55;15.60;;;4.03;;
70406;SDS011;57821;52.202;0.154;2022-12-07T07:11:21;17.08;;;4.13;;
70406;SDS011;57821;52.202;0.154;2022-12-07T07:13:48;17.67;;;4.18;;
70406;SDS011;57821;52.202;0.154;2022-12-07T07:16:14;19.05;;;5.05;;
70406;SDS011;57821;52.202;0.154;2022-12-07T07:18:41;18.38;;;5.13;;
70406;SDS011;57821;52.202;0.154;2022-12-07T07:21:08;23.45;;;4.28;;
70406;SDS011;57821;52.202;0.154;2022-12-07T07:23:34;12.30;;;4.53;;
70406;SDS011;57821;52.202;0.154;2022-12-07T07:26:01;18.65;;;3.90;;
70406;SDS011;57821;52.202;0.154;2022-12-07T07:28:27;18.73;;;4.68;;
70406;SDS011;57821;52.202;0.154;2022-12-07T07:30:54;15.32;;;4.35;;
70406;SDS011;57821;52.202;0.154;2022-12-07T07:33:20;19.75;;;4.30;;
70406;SDS011;57821;52.202;0.154;2022-12-07T07:35:47;25.30;;;4.90;;
70406;SDS011;57821;52.202;0.154;2022-12-07T07:38:13;13.88;;;3.85;;
70406;SDS011;57821;52.202;0.154;2022-12-07T07:40:40;25.88;;;4.07;;
70406;SDS011;57821;52.202;0.154;2022-12-07T07:43:06;17.25;;;4.35;;
70406;SDS011;57821;52.202;0.154;2022-12-07T07:45:33;13.82;;;3.78;;
70406;SDS011;57821;52.202;0.154;2022-12-07T07:47:59;16.52;;;4.40;;
70406;SDS011;57821;52.202;0.154;2022-12-07T07:50:26;15.57;;;4.28;;
70406;SDS011;57821;52.202;0.154;2022-12-07T07:52:52;27.45;;;4.40;;
70406;SDS011;57821;52.202;0.154;2022-12-07T07:55:19;17.40;;;4.57;;
70406;SDS011;57821;52.202;0.154;2022-12-07T07:57:45;15.23;;;4.60;;
70406;SDS011;57821;52.202;0.154;2022-12-07T08:00:19;15.25;;;4.15;;
70406;SDS011;57821;52.202;0.154;2022-12-07T08:02:46;19.00;;;5.00;;
70406;SDS011;57821;52.202;0.154;2022-12-07T08:05:13;21.60;;;5.53;;
70406;SDS011;57821;52.202;0.154;2022-12-07T08:07:39;11.93;;;4.30;;
70406;SDS011;57821;52.202;0.154;2022-12-07T08:10:07;14.15;;;4.05;;
70406;SDS011;57821;52.202;0.154;2022-12-07T08:12:40;16.85;;;4.40;;
70406;SDS011;57821;52.202;0.154;2022-12-07T08:15:08;19.77;;;4.35;;
70406;SDS011;57821;52.202;0.154;2022-12-07T08:17:35;17.05;;;3.83;;
70406;SDS011;57821;52.202;0.154;2022-12-07T08:20:01;15.27;;;3.67;;
70406;SDS011;57821;52.202;0.154;2022-12-07T08:22:28;22.38;;;4.68;;
70406;SDS011;57821;52.202;0.154;2022-12-07T08:24:55;17.98;;;3.85;;
70406;SDS011;57821;52.202;0.154;2022-12-07T08:27:21;14.73;;;3.45;;
70406;SDS011;57821;52.202;0.154;2022-12-07T08:29:48;17.10;;;2.75;;
70406;SDS011;57821;52.202;0.154;2022-12-07T08:32:14;12.77;;;2.97;;
70406;SDS011;57821;52.202;0.154;2022-12-07T08:34:41;12.25;;;3.17;;
70406;SDS011;57821;52.202;0.154;2022-12-07T08:37:07;13.05;;;2.85;;
70406;SDS011;57821;52.202;0.154;2022-12-07T08:39:34;13.20;;;2.63;;
70406;SDS011;57821;52.202;0.154;2022-12-07T08:42:00;11.20;;;2.60;;
70406;SDS011;57821;52.202;0.154;2022-12-07T08:44:27;14.60;;;3.00;;
70406;SDS011;57821;52.202;0.154;2022-12-07T08:46:54;11.82;;;2.60;;
70406;SDS011;57821;52.202;0.154;2022-12-07T08:49:26;10.10;;;2.50;;
70406;SDS011;57821;52.202;0.154;2022-12-07T08:51:57;11.35;;;2.38;;
70406;SDS011;57821;52.202;0.154;2022-12-07T08:54:24;10.35;;;2.63;;
70406;SDS011;57821;52.202;0.154;2022-12-07T08:56:51;15.70;;;2.50;;
70406;SDS011;57821;52.202;0.154;2022-12-07T08:59:24;14.75;;;2.45;;
70406;SDS011;57821;52.202;0.154;2022-12-07T09:01:52;13.30;;;2.60;;
70406;SDS011;57821;52.202;0.154;2022-12-07T09:04:19;11.25;;;2.63;;
70406;SDS011;57821;52.202;0.154;2022-12-07T09:06:46;15.77;;;2.58;;
70406;SDS011;57821;52.202;0.154;2022-12-07T09:09:13;9.32;;;2.80;;
70406;SDS011;57821;52.202;0.154;2022-12-07T09:11:40;14.60;;;3.50;;
70406;SDS011;57821;52.202;0.154;2022-12-07T09:14:07;12.90;;;4.65;;
70406;SDS011;57821;52.202;0.154;2022-12-07T09:16:33;11.93;;;2.38;;
70406;SDS011;57821;52.202;0.154;2022-12-07T09:19:00;7.55;;;2.05;;
70406;SDS011;57821;52.202;0.154;2022-12-07T09:21:27;16.35;;;4.82;;
70406;SDS011;57821;52.202;0.154;2022-12-07T09:23:53;8.77;;;2.70;;
70406;SDS011;57821;52.202;0.154;2022-12-07T09:26:20;9.13;;;2.30;;
70406;SDS011;57821;52.202;0.154;2022-12-07T09:28:46;9.35;;;2.75;;
70406;SDS011;57821;52.202;0.154;2022-12-07T09:31:13;10.65;;;2.72;;
70406;SDS011;57821;52.202;0.154;2022-12-07T09:33:53;11.07;;;2.38;;
70406;SDS011;57821;52.202;0.154;2022-12-07T09:36:27;9.30;;;1.98;;
70406;SDS011;57821;52.202;0.154;2022-12-07T09:38:54;16.45;;;3.30;;
70406;SDS011;57821;52.202;0.154;2022-12-07T09:41:21;12.27;;;2.38;;
70406;SDS011;57821;52.202;0.154;2022-12-07T09:43:48;7.90;;;1.75;;
70406;SDS011;57821;52.202;0.154;2022-12-07T09:46:16;14.77;;;2.97;;
70406;SDS011;57821;52.202;0.154;2022-12-07T09:48:45;16.55;;;3.75;;
70406;SDS011;57821;52.202;0.154;2022-12-07T09:53:48;13.70;;;3.55;;
70406;SDS011;57821;52.202;0.154;2022-12-07T09:56:16;13.60;;;3.58;;
70406;SDS011;57821;52.202;0.154;2022-12-07T09:58:44;9.60;;;2.70;;
70406;SDS011;57821;52.202;0.154;2022-12-07T10:01:18;12.07;;;2.20;;
70406;SDS011;57821;52.202;0.154;2022-12-07T10:03:53;10.05;;;2.00;;
70406;SDS011;57821;52.202;0.154;2022-12-07T10:06:23;9.20;;;2.15;;
70406;SDS011;57821;52.202;0.154;2022-12-07T10:08:49;9.30;;;2.20;;
70406;SDS011;57821;52.202;0.154;2022-12-07T10:11:16;11.18;;;3.00;;
70406;SDS011;57821;52.202;0.154;2022-12-07T10:13:43;10.38;;;2.80;;
70406;SDS011;57821;52.202;0.154;2022-12-07T10:18:51;9.13;;;2.50;;
70406;SDS011;57821;52.202;0.154;2022-12-07T10:21:25;10.00;;;2.30;;
70406;SDS011;57821;52.202;0.154;2022-12-07T10:29:00;13.82;;;2.55;;
70406;SDS011;57821;52.202;0.154;2022-12-07T10:31:38;10.25;;;1.80;;
70406;SDS011;57821;52.202;0.154;2022-12-07T10:34:14;6.00;;;1.73;;
70406;SDS011;57821;52.202;0.154;2022-12-07T10:39:15;10.13;;;1.83;;
70406;SDS011;57821;52.202;0.154;2022-12-07T10:41:55;5.35;;;1.38;;
70406;SDS011;57821;52.202;0.154;2022-12-07T10:44:26;7.60;;;1.63;;
70406;SDS011;57821;52.202;0.154;2022-12-07T10:52:39;7.57;;;1.83;;
70406;SDS011;57821;52.202;0.154;2022-12-07T10:55:20;9.65;;;2.10;;
70406;SDS011;57821;52.202;0.154;2022-12-07T10:58:05;9.60;;;1.92;;
70406;SDS011;57821;52.202;0.154;2022-12-07T11:00:43;9.90;;;1.80;;
70406;SDS011;57821;52.202;0.154;2022-12-07T11:03:27;7.05;;;2.13;;
70406;SDS011;57821;52.202;0.154;2022-12-07T11:06:40;11.90;;;2.05;;
70406;SDS011;57821;52.202;0.154;2022-12-07T11:12:13;12.73;;;1.70;;
70406;SDS011;57821;52.202;0.154;2022-12-07T11:14:51;7.82;;;1.75;;
70406;SDS011;57821;52.202;0.154;2022-12-07T11:17:31;7.28;;;2.72;;
70406;SDS011;57821;52.202;0.154;2022-12-07T11:29:20;9.23;;;2.20;;
70406;SDS011;57821;52.202;0.154;2022-12-07T11:35:18;10.38;;;2.63;;
70406;SDS011;57821;52.202;0.154;2022-12-07T11:40:45;9.25;;;3.00;;
70406;SDS011;57821;52.202;0.154;2022-12-07T11:43:19;7.10;;;2.28;;
70406;SDS011;57821;52.202;0.154;2022-12-07T11:46:06;7.55;;;2.00;;
70406;SDS011;57821;52.202;0.154;2022-12-07T11:48:40;11.55;;;2.28;;
70406;SDS011;57821;52.202;0.154;2022-12-07T11:51:11;9.35;;;3.08;;
70406;SDS011;57821;52.202;0.154;2022-12-07T11:53:39;11.73;;;2.20;;
70406;SDS011;57821;52.202;0.154;2022-12-07T11:56:13;9.27;;;2.42;;
70406;SDS011;57821;52.202;0.154;2022-12-07T12:06:39;9.10;;;2.00;;
70406;SDS011;57821;52.202;0.154;2022-12-07T12:20:54;11.55;;;2.00;;
70406;SDS011;57821;52.202;0.154;2022-12-07T12:26:18;13.63;;;3.22;;
70406;SDS011;57821;52.202;0.154;2022-12-07T12:33:55;8.80;;;1.98;;
70406;SDS011;57821;52.202;0.154;2022-12-07T12:36:42;10.45;;;1.70;;
70406;SDS011;57821;52.202;0.154;2022-12-07T12:39:14;9.18;;;2.00;;
70406;SDS011;57821;52.202;0.154;2022-12-07T12:54:37;10.38;;;2.10;;
70406;SDS011;57821;52.202;0.154;2022-12-07T12:57:06;12.43;;;1.85;;
70406;SDS011;57821;52.202;0.154;2022-12-07T13:08:11;9.90;;;2.20;;
70406;SDS011;57821;52.202;0.154;2022-12-07T13:15:36;8.13;;;2.28;;
70406;SDS011;57821;52.202;0.154;2022-12-07T13:18:04;10.93;;;2.00;;
70406;SDS011;57821;52.202;0.154;2022-12-07T13:20:50;8.45;;;2.38;;
70406;SDS011;57821;52.202;0.154;2022-12-07T13:28:46;12.27;;;3.72;;
70406;SDS011;57821;52.202;0.154;2022-12-07T13:31:19;5.72;;;2.05;;
70406;SDS011;57821;52.202;0.154;2022-12-07T13:33:58;9.07;;;1.98;;
70406;SDS011;57821;52.202;0.154;2022-12-07T13:36:26;9.20;;;2.40;;
70406;SDS011;57821;52.202;0.154;2022-12-07T13:39:19;6.38;;;1.77;;
70406;SDS011;57821;52.202;0.154;2022-12-07T13:42:06;5.55;;;1.40;;
70406;SDS011;57821;52.202;0.154;2022-12-07T13:44:41;9.43;;;2.00;;
70406;SDS011;57821;52.202;0.154;2022-12-07T13:49:58;7.47;;;1.40;;
70406;SDS011;57821;52.202;0.154;2022-12-07T13:52:26;9.10;;;1.75;;
70406;SDS011;57821;52.202;0.154;2022-12-07T13:55:01;8.77;;;1.50;;
70406;SDS011;57821;52.202;0.154;2022-12-07T13:57:40;10.32;;;2.20;;
70406;SDS011;57821;52.202;0.154;2022-12-07T14:00:14;8.80;;;1.95;;
70406;SDS011;57821;52.202;0.154;2022-12-07T14:05:34;9.38;;;2.10;;
70406;SDS011;57821;52.202;0.154;2022-12-07T14:13:00;8.55;;;2.40;;
70406;SDS011;57821;52.202;0.154;2022-12-07T14:15:30;11.02;;;2.97;;
70406;SDS011;57821;52.202;0.154;2022-12-07T14:18:02;13.15;;;3.55;;
70406;SDS011;57821;52.202;0.154;2022-12-07T14:23:00;9.15;;;2.33;;
70406;SDS011;57821;52.202;0.154;2022-12-07T14:25:27;12.35;;;2.72;;
70406;SDS011;57821;52.202;0.154;2022-12-07T14:27:55;9.20;;;3.00;;
70406;SDS011;57821;52.202;0.154;2022-12-07T14:30:24;7.78;;;2.50;;
70406;SDS011;57821;52.202;0.154;2022-12-07T14:32:59;8.90;;;2.63;;
70406;SDS011;57821;52.202;0.154;2022-12-07T14:35:28;10.13;;;3.08;;
70406;SDS011;57821;52.202;0.154;2022-12-07T14:37:56;10.27;;;2.88;;
70406;SDS011;57821;52.202;0.154;2022-12-07T14:40:23;9.25;;;2.40;;
70406;SDS011;57821;52.202;0.154;2022-12-07T14:42:51;12.98;;;2.42;;
70406;SDS011;57821;52.202;0.154;2022-12-07T14:45:22;11.10;;;2.30;;
70406;SDS011;57821;52.202;0.154;2022-12-07T14:47:49;6.40;;;2.42;;
70406;SDS011;57821;52.202;0.154;2022-12-07T14:50:36;10.93;;;2.20;;
70406;SDS011;57821;52.202;0.154;2022-12-07T14:53:27;10.35;;;2.80;;
70406;SDS011;57821;52.202;0.154;2022-12-07T14:55:57;10.57;;;3.28;;
70406;SDS011;57821;52.202;0.154;2022-12-07T14:58:24;12.10;;;3.50;;
70406;SDS011;57821;52.202;0.154;2022-12-07T15:00:50;10.80;;;2.92;;
70406;SDS011;57821;52.202;0.154;2022-12-07T15:03:17;11.85;;;3.15;;
70406;SDS011;57821;52.202;0.154;2022-12-07T15:05:43;11.27;;;3.05;;
70406;SDS011;57821;52.202;0.154;2022-12-07T15:08:11;13.02;;;2.95;;
70406;SDS011;57821;52.202;0.154;2022-12-07T15:10:39;13.50;;;3.13;;
70406;SDS011;57821;52.202;0.154;2022-12-07T15:13:06;9.32;;;2.97;;
70406;SDS011;57821;52.202;0.154;2022-12-07T15:15:32;9.30;;;3.10;;
70406;SDS011;57821;52.202;0.154;2022-12-07T15:18:00;9.57;;;3.03;;
70406;SDS011;57821;52.202;0.154;2022-12-07T15:20:26;17.75;;;3.90;;
70406;SDS011;57821;52.202;0.154;2022-12-07T15:22:53;16.17;;;5.20;;
70406;SDS011;57821;52.202;0.154;2022-12-07T15:25:19;10.65;;;4.65;;
70406;SDS011;57821;52.202;0.154;2022-12-07T15:27:46;11.55;;;4.63;;
70406;SDS011;57821;52.202;0.154;2022-12-07T15:30:12;9.32;;;3.97;;
70406;SDS011;57821;52.202;0.154;2022-12-07T15:32:39;11.88;;;4.03;;
70406;SDS011;57821;52.202;0.154;2022-12-07T15:35:05;11.75;;;4.68;;
70406;SDS011;57821;52.202;0.154;2022-12-07T15:37:32;12.35;;;3.90;;
70406;SDS011;57821;52.202;0.154;2022-12-07T15:39:59;13.32;;;3.60;;
70406;SDS011;57821;52.202;0.154;2022-12-07T15:42:33;13.38;;;3.63;;
70406;SDS011;57821;52.202;0.154;2022-12-07T15:44:59;13.70;;;4.15;;
70406;SDS011;57821;52.202;0.154;2022-12-07T15:47:26;12.80;;;4.95;;
70406;SDS011;57821;52.202;0.154;2022-12-07T15:49:53;16.27;;;4.88;;
70406;SDS011;57821;52.202;0.154;2022-12-07T15:52:21;18.77;;;4.43;;
70406;SDS011;57821;52.202;0.154;2022-12-07T15:54:47;11.23;;;4.60;;
70406;SDS011;57821;52.202;0.154;2022-12-07T15:57:14;16.63;;;5.55;;
70406;SDS011;57821;52.202;0.154;2022-12-07T15:59:47;20.52;;;4.90;;
70406;SDS011;57821;52.202;0.154;2022-12-07T16:02:13;19.45;;;4.90;;
70406;SDS011;57821;52.202;0.154;2022-12-07T16:04:40;18.73;;;5.70;;
70406;SDS011;57821;52.202;0.154;2022-12-07T16:07:07;15.50;;;6.00;;
70406;SDS011;57821;52.202;0.154;2022-12-07T16:09:34;13.43;;;5.28;;
70406;SDS011;57821;52.202;0.154;2022-12-07T16:12:00;13.40;;;5.55;;
70406;SDS011;57821;52.202;0.154;2022-12-07T16:14:27;18.95;;;5.90;;
70406;SDS011;57821;52.202;0.154;2022-12-07T16:16:53;13.25;;;5.78;;
70406;SDS011;57821;52.202;0.154;2022-12-07T16:19:20;13.73;;;5.60;;
70406;SDS011;57821;52.202;0.154;2022-12-07T16:21:47;17.40;;;5.10;;
70406;SDS011;57821;52.202;0.154;2022-12-07T16:24:13;14.25;;;5.13;;
70406;SDS011;57821;52.202;0.154;2022-12-07T16:26:40;13.93;;;4.80;;
70406;SDS011;57821;52.202;0.154;2022-12-07T16:29:14;16.88;;;4.72;;
70406;SDS011;57821;52.202;0.154;2022-12-07T16:31:41;14.02;;;5.10;;
70406;SDS011;57821;52.202;0.154;2022-12-07T16:34:08;13.38;;;4.68;;
70406;SDS011;57821;52.202;0.154;2022-12-07T16:36:35;14.15;;;5.45;;
70406;SDS011;57821;52.202;0.154;2022-12-07T16:39:21;16.38;;;4.95;;
70406;SDS011;57821;52.202;0.154;2022-12-07T16:41:48;16.55;;;4.57;;
70406;SDS011;57821;52.202;0.154;2022-12-07T16:44:14;12.02;;;4.13;;
70406;SDS011;57821;52.202;0.154;2022-12-07T16:46:41;14.52;;;4.53;;
70406;SDS011;57821;52.202;0.154;2022-12-07T16:49:12;13.80;;;4.68;;
70406;SDS011;57821;52.202;0.154;2022-12-07T16:51:39;12.48;;;4.95;;
70406;SDS011;57821;52.202;0.154;2022-12-07T16:54:08;18.83;;;5.63;;
70406;SDS011;57821;52.202;0.154;2022-12-07T16:56:36;16.63;;;5.55;;
70406;SDS011;57821;52.202;0.154;2022-12-07T16:59:02;21.00;;;6.35;;
70406;SDS011;57821;52.202;0.154;2022-12-07T17:01:29;13.27;;;5.65;;
70406;SDS011;57821;52.202;0.154;2022-12-07T17:03:56;13.63;;;6.25;;
70406;SDS011;57821;52.202;0.154;2022-12-07T17:06:25;13.88;;;6.32;;
70406;SDS011;57821;52.202;0.154;2022-12-07T17:08:53;15.57;;;5.90;;
70406;SDS011;57821;52.202;0.154;2022-12-07T17:11:29;13.50;;;6.47;;
70406;SDS011;57821;52.202;0.154;2022-12-07T17:13:56;19.05;;;7.30;;
70406;SDS011;57821;52.202;0.154;2022-12-07T17:16:23;18.02;;;6.10;;